sensor_id;sensor_type;location;lat;lon;timestamp;pressure;altitude;pressure_sealevel;temperature;humidity
5522;BME280;2783;48.730;8.006;2022-12-24T00:02:05;99676.25;;;14.34;91.38
5522;BME280;2783;48.730;8.006;2022-12-24T00:04:31;99674.94;;;14.41;90.04
5522;BME280;2783;48.730;8.006;2022-12-24T00:06:56;99671.88;;;14.49;90.56
5522;BME280;2783;48.730;8.006;2022-12-24T00:09:21;99676.09;;;14.53;90.13
5522;BME280;2783;48.730;8.006;2022-12-24T00:11:46;99668.66;;;14.42;89.84
5522;BME280;2783;48.730;8.006;2022-12-24T00:14:12;99672.97;;;14.45;90.15
5522;BME280;2783;48.730;8.006;2022-12-24T00:16:37;99670.00;;;14.51;89.35
5522;BME280;2783;48.730;8.006;2022-12-24T00:19:02;99670.53;;;14.58;89.48
5522;BME280;2783;48.730;8.006;2022-12-24T00:21:27;99676.63;;;14.60;88.16
5522;BME280;2783;48.730;8.006;2022-12-24T00:23:53;99674.91;;;14.59;88.50
5522;BME280;2783;48.730;8.006;2022-12-24T00:26:18;99679.31;;;14.60;89.14
5522;BME280;2783;48.730;8.006;2022-12-24T00:28:43;99680.28;;;14.59;90.06
5522;BME280;2783;48.730;8.006;2022-12-24T00:31:10;99676.88;;;14.55;90.24
5522;BME280;2783;48.730;8.006;2022-12-24T00:33:36;99675.34;;;14.51;90.34
5522;BME280;2783;48.730;8.006;2022-12-24T00:36:01;99682.25;;;14.55;89.51
5522;BME280;2783;48.730;8.006;2022-12-24T00:38:27;99676.72;;;14.58;89.35
5522;BME280;2783;48.730;8.006;2022-12-24T00:40:56;99686.41;;;14.61;88.10
5522;BME280;2783;48.730;8.006;2022-12-24T00:43:22;99690.00;;;14.60;88.84
5522;BME280;2783;48.730;8.006;2022-12-24T00:45:47;99704.53;;;14.56;89.17
5522;BME280;2783;48.730;8.006;2022-12-24T00:48:12;99707.38;;;14.52;89.10
5522;BME280;2783;48.730;8.006;2022-12-24T00:50:37;99713.19;;;14.43;90.01
5522;BME280;2783;48.730;8.006;2022-12-24T00:53:03;99713.72;;;14.34;90.57
5522;BME280;2783;48.730;8.006;2022-12-24T00:55:28;99711.41;;;14.44;90.12
5522;BME280;2783;48.730;8.006;2022-12-24T00:57:53;99715.78;;;14.45;89.72
5522;BME280;2783;48.730;8.006;2022-12-24T01:00:19;99717.13;;;14.53;89.25
5522;BME280;2783;48.730;8.006;2022-12-24T01:02:44;99723.53;;;14.51;89.02
5522;BME280;2783;48.730;8.006;2022-12-24T01:05:10;99732.66;;;14.47;88.60
5522;BME280;2783;48.730;8.006;2022-12-24T01:07:42;99750.28;;;14.51;89.14
5522;BME280;2783;48.730;8.006;2022-12-24T01:10:11;99743.50;;;14.44;89.35
5522;BME280;2783;48.730;8.006;2022-12-24T01:12:37;99754.75;;;14.50;88.41
5522;BME280;2783;48.730;8.006;2022-12-24T01:15:02;99776.09;;;14.52;88.90
5522;BME280;2783;48.730;8.006;2022-12-24T01:17:29;99771.16;;;14.44;89.80
5522;BME280;2783;48.730;8.006;2022-12-24T01:19:55;99766.63;;;14.45;90.33
5522;BME280;2783;48.730;8.006;2022-12-24T01:22:20;99769.66;;;14.39;89.67
5522;BME280;2783;48.730;8.006;2022-12-24T01:24:45;99766.88;;;14.40;91.03
5522;BME280;2783;48.730;8.006;2022-12-24T01:27:10;99768.69;;;14.40;90.97
5522;BME280;2783;48.730;8.006;2022-12-24T01:29:36;99781.31;;;14.38;91.02
5522;BME280;2783;48.730;8.006;2022-12-24T01:32:01;99790.88;;;14.42;91.25
5522;BME280;2783;48.730;8.006;2022-12-24T01:34:26;99790.97;;;14.40;90.16
5522;BME280;2783;48.730;8.006;2022-12-24T01:36:52;99802.09;;;14.33;90.99
5522;BME280;2783;48.730;8.006;2022-12-24T01:39:17;99804.88;;;14.30;90.14
5522;BME280;2783;48.730;8.006;2022-12-24T01:41:42;99805.06;;;14.27;90.03
5522;BME280;2783;48.730;8.006;2022-12-24T01:47:08;99811.66;;;14.37;89.85
5522;BME280;2783;48.730;8.006;2022-12-24T01:49:35;99813.53;;;14.35;88.95
5522;BME280;2783;48.730;8.006;2022-12-24T01:52:02;99817.44;;;14.29;88.45
5522;BME280;2783;48.730;8.006;2022-12-24T01:54:30;99821.66;;;14.33;88.95
5522;BME280;2783;48.730;8.006;2022-12-24T01:57:00;99813.72;;;14.32;89.25
5522;BME280;2783;48.730;8.006;2022-12-24T01:59:27;99812.41;;;14.22;89.03
5522;BME280;2783;48.730;8.006;2022-12-24T02:01:53;99814.84;;;14.28;88.22
5522;BME280;2783;48.730;8.006;2022-12-24T02:06:44;99824.41;;;14.32;88.10
5522;BME280;2783;48.730;8.006;2022-12-24T02:09:09;99817.19;;;14.34;88.58
5522;BME280;2783;48.730;8.006;2022-12-24T02:11:35;99820.94;;;14.30;88.84
5522;BME280;2783;48.730;8.006;2022-12-24T02:14:03;99822.69;;;14.31;88.54
5522;BME280;2783;48.730;8.006;2022-12-24T02:19:09;99824.25;;;14.35;87.57
5522;BME280;2783;48.730;8.006;2022-12-24T02:26:59;99827.09;;;14.32;89.13
5522;BME280;2783;48.730;8.006;2022-12-24T02:32:15;99837.94;;;14.29;89.66
5522;BME280;2783;48.730;8.006;2022-12-24T02:35:08;99827.47;;;14.24;91.11
5522;BME280;2783;48.730;8.006;2022-12-24T02:37:32;99819.59;;;14.21;91.16
5522;BME280;2783;48.730;8.006;2022-12-24T02:40:05;99803.63;;;14.20;90.15
5522;BME280;2783;48.730;8.006;2022-12-24T02:42:39;99816.03;;;14.21;91.07
5522;BME280;2783;48.730;8.006;2022-12-24T02:45:27;99828.47;;;14.22;91.39
5522;BME280;2783;48.730;8.006;2022-12-24T02:47:51;99809.25;;;14.14;91.24
5522;BME280;2783;48.730;8.006;2022-12-24T02:50:18;99826.25;;;14.13;91.59
5522;BME280;2783;48.730;8.006;2022-12-24T02:52:44;99820.91;;;14.13;92.48
5522;BME280;2783;48.730;8.006;2022-12-24T02:55:23;99819.31;;;14.09;91.91
5522;BME280;2783;48.730;8.006;2022-12-24T02:58:00;99832.78;;;14.07;92.45
5522;BME280;2783;48.730;8.006;2022-12-24T03:00:31;99821.34;;;14.04;93.33
5522;BME280;2783;48.730;8.006;2022-12-24T03:03:04;99825.94;;;14.02;92.98
5522;BME280;2783;48.730;8.006;2022-12-24T03:06:20;99835.84;;;14.00;92.93
5522;BME280;2783;48.730;8.006;2022-12-24T03:08:30;99849.38;;;13.97;92.32
5522;BME280;2783;48.730;8.006;2022-12-24T03:11:01;99847.63;;;13.96;92.07
5522;BME280;2783;48.730;8.006;2022-12-24T03:13:29;99847.47;;;13.99;92.45
5522;BME280;2783;48.730;8.006;2022-12-24T03:15:55;99845.59;;;14.01;92.97
5522;BME280;2783;48.730;8.006;2022-12-24T03:18:22;99844.03;;;13.97;92.91
5522;BME280;2783;48.730;8.006;2022-12-24T03:23:23;99843.50;;;13.89;92.10
5522;BME280;2783;48.730;8.006;2022-12-24T03:25:48;99848.16;;;13.85;92.61
5522;BME280;2783;48.730;8.006;2022-12-24T03:28:14;99861.44;;;13.87;93.20
5522;BME280;2783;48.730;8.006;2022-12-24T03:30:41;99865.19;;;13.83;93.75
5522;BME280;2783;48.730;8.006;2022-12-24T03:33:07;99869.91;;;13.78;93.38
5522;BME280;2783;48.730;8.006;2022-12-24T03:35:32;99876.69;;;13.85;92.09
5522;BME280;2783;48.730;8.006;2022-12-24T03:37:57;99881.56;;;13.94;89.98
5522;BME280;2783;48.730;8.006;2022-12-24T03:40:23;99874.91;;;14.02;89.08
5522;BME280;2783;48.730;8.006;2022-12-24T03:42:48;99881.94;;;14.05;87.73
5522;BME280;2783;48.730;8.006;2022-12-24T03:45:13;99883.34;;;14.12;87.50
5522;BME280;2783;48.730;8.006;2022-12-24T03:47:39;99886.91;;;14.12;87.55
5522;BME280;2783;48.730;8.006;2022-12-24T03:50:04;99886.09;;;14.10;87.79
5522;BME280;2783;48.730;8.006;2022-12-24T03:52:30;99890.72;;;14.07;88.19
5522;BME280;2783;48.730;8.006;2022-12-24T03:54:55;99875.56;;;14.07;88.17
5522;BME280;2783;48.730;8.006;2022-12-24T03:57:20;99886.81;;;13.97;88.45
5522;BME280;2783;48.730;8.006;2022-12-24T03:59:45;99898.00;;;14.05;88.04
5522;BME280;2783;48.730;8.006;2022-12-24T04:02:11;99892.41;;;14.09;87.56
5522;BME280;2783;48.730;8.006;2022-12-24T04:04:36;99900.50;;;14.08;87.41
5522;BME280;2783;48.730;8.006;2022-12-24T04:07:02;99906.75;;;14.08;87.65
5522;BME280;2783;48.730;8.006;2022-12-24T04:09:27;99898.06;;;14.03;87.77
5522;BME280;2783;48.730;8.006;2022-12-24T04:11:52;99902.38;;;14.06;88.02
5522;BME280;2783;48.730;8.006;2022-12-24T04:14:18;99904.06;;;14.08;86.79
5522;BME280;2783;48.730;8.006;2022-12-24T04:16:43;99903.84;;;14.13;86.35
5522;BME280;2783;48.730;8.006;2022-12-24T04:19:08;99896.88;;;14.09;86.09
5522;BME280;2783;48.730;8.006;2022-12-24T04:21:33;99909.47;;;14.07;86.17
5522;BME280;2783;48.730;8.006;2022-12-24T04:23:59;99903.34;;;14.05;85.31
5522;BME280;2783;48.730;8.006;2022-12-24T04:26:24;99913.09;;;14.06;85.44
5522;BME280;2783;48.730;8.006;2022-12-24T04:28:49;99911.28;;;14.06;83.88
5522;BME280;2783;48.730;8.006;2022-12-24T04:31:15;99920.03;;;14.10;84.25
5522;BME280;2783;48.730;8.006;2022-12-24T04:33:41;99918.13;;;14.12;84.10
5522;BME280;2783;48.730;8.006;2022-12-24T04:36:06;99920.03;;;14.10;83.91
5522;BME280;2783;48.730;8.006;2022-12-24T04:38:32;99906.75;;;14.08;83.62
5522;BME280;2783;48.730;8.006;2022-12-24T04:40:59;99916.41;;;14.11;83.13
5522;BME280;2783;48.730;8.006;2022-12-24T04:43:25;99926.88;;;14.15;83.88
5522;BME280;2783;48.730;8.006;2022-12-24T04:45:50;99935.94;;;14.13;83.74
5522;BME280;2783;48.730;8.006;2022-12-24T04:48:16;99939.47;;;14.13;83.85
5522;BME280;2783;48.730;8.006;2022-12-24T04:50:41;99935.13;;;14.11;84.18
5522;BME280;2783;48.730;8.006;2022-12-24T04:53:06;99942.19;;;14.12;83.96
5522;BME280;2783;48.730;8.006;2022-12-24T04:55:31;99935.94;;;14.13;83.94
5522;BME280;2783;48.730;8.006;2022-12-24T04:57:57;99940.31;;;14.14;84.11
5522;BME280;2783;48.730;8.006;2022-12-24T05:00:22;99933.50;;;14.08;83.80
5522;BME280;2783;48.730;8.006;2022-12-24T05:02:47;99933.53;;;14.07;82.98
5522;BME280;2783;48.730;8.006;2022-12-24T05:05:12;99944.22;;;14.07;83.94
5522;BME280;2783;48.730;8.006;2022-12-24T05:07:38;99949.72;;;14.04;84.46
5522;BME280;2783;48.730;8.006;2022-12-24T05:10:03;99939.84;;;14.06;84.32
5522;BME280;2783;48.730;8.006;2022-12-24T05:12:28;99947.94;;;14.04;84.85
5522;BME280;2783;48.730;8.006;2022-12-24T05:14:54;99948.97;;;14.02;84.95
5522;BME280;2783;48.730;8.006;2022-12-24T05:17:19;99946.41;;;13.99;85.98
5522;BME280;2783;48.730;8.006;2022-12-24T05:19:44;99944.84;;;13.95;86.85
5522;BME280;2783;48.730;8.006;2022-12-24T05:22:10;99948.56;;;13.91;88.14
5522;BME280;2783;48.730;8.006;2022-12-24T05:24:54;99941.84;;;13.82;86.62
5522;BME280;2783;48.730;8.006;2022-12-24T05:27:37;99930.25;;;13.83;88.03
5522;BME280;2783;48.730;8.006;2022-12-24T05:30:03;99938.19;;;13.85;88.53
5522;BME280;2783;48.730;8.006;2022-12-24T05:32:28;99937.53;;;13.80;89.20
5522;BME280;2783;48.730;8.006;2022-12-24T05:34:53;99942.16;;;13.76;88.12
5522;BME280;2783;48.730;8.006;2022-12-24T05:37:19;99952.75;;;13.78;88.94
5522;BME280;2783;48.730;8.006;2022-12-24T05:39:44;99949.19;;;13.79;89.16
5522;BME280;2783;48.730;8.006;2022-12-24T05:42:09;99950.09;;;13.78;90.17
5522;BME280;2783;48.730;8.006;2022-12-24T05:44:34;99959.31;;;13.71;91.06
5522;BME280;2783;48.730;8.006;2022-12-24T05:47:00;99955.06;;;13.67;92.80
5522;BME280;2783;48.730;8.006;2022-12-24T05:49:25;99952.56;;;13.64;93.39
5522;BME280;2783;48.730;8.006;2022-12-24T05:51:50;99952.81;;;13.58;94.61
5522;BME280;2783;48.730;8.006;2022-12-24T05:54:16;99950.28;;;13.55;95.86
5522;BME280;2783;48.730;8.006;2022-12-24T05:56:41;99947.91;;;13.49;96.78
5522;BME280;2783;48.730;8.006;2022-12-24T05:59:06;99951.94;;;13.39;97.92
5522;BME280;2783;48.730;8.006;2022-12-24T06:01:31;99946.72;;;13.36;98.15
5522;BME280;2783;48.730;8.006;2022-12-24T06:03:57;99945.13;;;13.32;99.10
5522;BME280;2783;48.730;8.006;2022-12-24T06:06:23;99939.91;;;13.29;98.57
5522;BME280;2783;48.730;8.006;2022-12-24T06:08:49;99946.22;;;13.28;97.88
5522;BME280;2783;48.730;8.006;2022-12-24T06:11:15;99946.28;;;13.26;97.13
5522;BME280;2783;48.730;8.006;2022-12-24T06:13:41;99954.22;;;13.28;95.19
5522;BME280;2783;48.730;8.006;2022-12-24T06:16:07;99955.94;;;13.29;94.21
5522;BME280;2783;48.730;8.006;2022-12-24T06:18:33;99953.88;;;13.35;93.96
5522;BME280;2783;48.730;8.006;2022-12-24T06:20:59;99967.66;;;13.45;94.12
5522;BME280;2783;48.730;8.006;2022-12-24T06:23:24;99961.59;;;13.41;93.49
5522;BME280;2783;48.730;8.006;2022-12-24T06:25:50;99953.78;;;13.37;93.69
5522;BME280;2783;48.730;8.006;2022-12-24T06:28:15;99956.69;;;13.32;93.26
5522;BME280;2783;48.730;8.006;2022-12-24T06:30:44;99955.94;;;13.29;92.76
5522;BME280;2783;48.730;8.006;2022-12-24T06:33:10;99968.34;;;13.30;91.62
5522;BME280;2783;48.730;8.006;2022-12-24T06:35:35;99975.44;;;13.31;91.39
5522;BME280;2783;48.730;8.006;2022-12-24T06:38:00;99970.84;;;13.34;91.04
5522;BME280;2783;48.730;8.006;2022-12-24T06:40:25;99976.13;;;13.36;91.64
5522;BME280;2783;48.730;8.006;2022-12-24T06:42:51;99982.38;;;13.35;91.76
5522;BME280;2783;48.730;8.006;2022-12-24T06:45:16;99999.41;;;13.32;91.51
5522;BME280;2783;48.730;8.006;2022-12-24T06:47:41;99989.53;;;13.34;91.64
5522;BME280;2783;48.730;8.006;2022-12-24T06:50:07;99987.84;;;13.32;91.48
5522;BME280;2783;48.730;8.006;2022-12-24T06:52:32;99998.69;;;13.29;91.37
5522;BME280;2783;48.730;8.006;2022-12-24T06:54:57;100007.50;;;13.31;91.32
5522;BME280;2783;48.730;8.006;2022-12-24T06:57:22;100016.56;;;13.27;90.58
5522;BME280;2783;48.730;8.006;2022-12-24T06:59:48;100005.75;;;13.30;90.42
5522;BME280;2783;48.730;8.006;2022-12-24T07:02:13;100015.44;;;13.32;90.22
5522;BME280;2783;48.730;8.006;2022-12-24T07:04:38;100017.31;;;13.30;90.61
5522;BME280;2783;48.730;8.006;2022-12-24T07:07:03;100025.25;;;13.32;90.56
5522;BME280;2783;48.730;8.006;2022-12-24T07:09:29;100019.16;;;13.28;90.77
5522;BME280;2783;48.730;8.006;2022-12-24T07:11:55;100031.47;;;13.32;90.65
5522;BME280;2783;48.730;8.006;2022-12-24T07:14:20;100034.34;;;13.28;90.00
5522;BME280;2783;48.730;8.006;2022-12-24T07:16:45;100024.59;;;13.27;90.34
5522;BME280;2783;48.730;8.006;2022-12-24T07:19:10;100027.19;;;13.28;90.27
5522;BME280;2783;48.730;8.006;2022-12-24T07:21:36;100028.94;;;13.29;90.18
5522;BME280;2783;48.730;8.006;2022-12-24T07:24:01;100030.72;;;13.29;89.92
5522;BME280;2783;48.730;8.006;2022-12-24T07:26:26;100034.28;;;13.29;90.63
5522;BME280;2783;48.730;8.006;2022-12-24T07:28:52;100030.72;;;13.29;90.36
5522;BME280;2783;48.730;8.006;2022-12-24T07:31:17;100029.84;;;13.28;91.11
5522;BME280;2783;48.730;8.006;2022-12-24T07:33:42;100045.16;;;13.24;90.41
5522;BME280;2783;48.730;8.006;2022-12-24T07:36:09;100036.97;;;13.29;91.15
5522;BME280;2783;48.730;8.006;2022-12-24T07:38:34;100043.16;;;13.30;91.12
5522;BME280;2783;48.730;8.006;2022-12-24T07:41:00;100054.09;;;13.23;92.10
5522;BME280;2783;48.730;8.006;2022-12-24T07:43:25;100044.53;;;13.18;91.87
5522;BME280;2783;48.730;8.006;2022-12-24T07:45:53;100040.97;;;13.19;92.05
5522;BME280;2783;48.730;8.006;2022-12-24T07:48:19;100032.19;;;13.15;92.20
5522;BME280;2783;48.730;8.006;2022-12-24T07:50:44;100041.94;;;13.16;92.43
5522;BME280;2783;48.730;8.006;2022-12-24T07:53:09;100036.59;;;13.16;93.24
5522;BME280;2783;48.730;8.006;2022-12-24T07:55:34;100041.19;;;13.13;94.03
5522;BME280;2783;48.730;8.006;2022-12-24T07:58:00;100041.19;;;13.13;93.12
5522;BME280;2783;48.730;8.006;2022-12-24T08:00:25;100047.56;;;13.10;93.50
5522;BME280;2783;48.730;8.006;2022-12-24T08:02:50;100053.69;;;13.12;93.28
5522;BME280;2783;48.730;8.006;2022-12-24T08:05:16;100046.50;;;13.14;93.35
5522;BME280;2783;48.730;8.006;2022-12-24T08:07:41;100044.75;;;13.13;92.65
5522;BME280;2783;48.730;8.006;2022-12-24T08:10:06;100049.63;;;13.24;92.34
5522;BME280;2783;48.730;8.006;2022-12-24T08:12:31;100052.09;;;13.29;93.14
5522;BME280;2783;48.730;8.006;2022-12-24T08:14:57;100057.44;;;13.29;92.40
5522;BME280;2783;48.730;8.006;2022-12-24T08:17:22;100053.81;;;13.30;92.36
5522;BME280;2783;48.730;8.006;2022-12-24T08:19:47;100067.75;;;13.38;92.56
5522;BME280;2783;48.730;8.006;2022-12-24T08:22:13;100074.63;;;13.43;91.75
5522;BME280;2783;48.730;8.006;2022-12-24T08:24:39;100077.09;;;13.48;91.37
5522;BME280;2783;48.730;8.006;2022-12-24T08:27:04;100065.06;;;13.58;90.97
5522;BME280;2783;48.730;8.006;2022-12-24T08:29:29;100072.81;;;13.64;91.52
5522;BME280;2783;48.730;8.006;2022-12-24T08:31:54;100077.50;;;13.59;90.74
5522;BME280;2783;48.730;8.006;2022-12-24T08:34:20;100070.47;;;13.56;90.72
5522;BME280;2783;48.730;8.006;2022-12-24T08:36:45;100069.81;;;13.51;90.78
5522;BME280;2783;48.730;8.006;2022-12-24T08:39:10;100072.16;;;13.59;91.31
5522;BME280;2783;48.730;8.006;2022-12-24T08:41:35;100071.16;;;13.61;90.57
5522;BME280;2783;48.730;8.006;2022-12-24T08:44:01;100066.53;;;13.65;90.64
5522;BME280;2783;48.730;8.006;2022-12-24T08:46:26;100076.34;;;13.64;90.77
5522;BME280;2783;48.730;8.006;2022-12-24T08:48:52;100068.25;;;13.66;90.68
5522;BME280;2783;48.730;8.006;2022-12-24T08:51:17;100073.75;;;13.63;91.07
5522;BME280;2783;48.730;8.006;2022-12-24T08:53:43;100075.50;;;13.64;90.25
5522;BME280;2783;48.730;8.006;2022-12-24T08:56:09;100084.44;;;13.63;89.54
5522;BME280;2783;48.730;8.006;2022-12-24T08:58:34;100080.84;;;13.64;88.56
5522;BME280;2783;48.730;8.006;2022-12-24T09:01:00;100082.50;;;13.66;88.82
5522;BME280;2783;48.730;8.006;2022-12-24T09:03:26;100084.06;;;13.72;89.46
5522;BME280;2783;48.730;8.006;2022-12-24T09:05:51;100087.47;;;13.75;89.64
5522;BME280;2783;48.730;8.006;2022-12-24T09:08:17;100090.13;;;13.75;89.51
5522;BME280;2783;48.730;8.006;2022-12-24T09:10:43;100096.59;;;13.70;88.25
5522;BME280;2783;48.730;8.006;2022-12-24T09:13:08;100100.09;;;13.72;88.31
5522;BME280;2783;48.730;8.006;2022-12-24T09:15:33;100102.56;;;13.76;87.98
5522;BME280;2783;48.730;8.006;2022-12-24T09:17:59;100101.41;;;13.82;89.74
5522;BME280;2783;48.730;8.006;2022-12-24T09:20:24;100106.63;;;13.85;88.48
5522;BME280;2783;48.730;8.006;2022-12-24T09:22:50;100106.19;;;13.94;87.43
5522;BME280;2783;48.730;8.006;2022-12-24T09:25:15;100104.84;;;14.04;87.43
5522;BME280;2783;48.730;8.006;2022-12-24T09:27:40;100101.78;;;14.13;86.95
5522;BME280;2783;48.730;8.006;2022-12-24T09:30:06;100109.13;;;14.08;86.32
5522;BME280;2783;48.730;8.006;2022-12-24T09:32:32;100103.50;;;14.14;86.46
5522;BME280;2783;48.730;8.006;2022-12-24T09:34:57;100113.63;;;14.07;86.46
5522;BME280;2783;48.730;8.006;2022-12-24T09:37:22;100113.47;;;14.10;86.44
5522;BME280;2783;48.730;8.006;2022-12-24T09:39:48;100119.41;;;14.17;86.56
5522;BME280;2783;48.730;8.006;2022-12-24T09:44:43;100126.22;;;14.24;85.98
5522;BME280;2783;48.730;8.006;2022-12-24T09:47:56;100127.41;;;15.11;86.14
5522;BME280;2783;48.730;8.006;2022-12-24T09:49:58;100135.69;;;15.94;79.73
5522;BME280;2783;48.730;8.006;2022-12-24T09:52:32;100122.00;;;17.57;74.72
5522;BME280;2783;48.730;8.006;2022-12-24T09:55:04;100127.47;;;17.85;66.07
5522;BME280;2783;48.730;8.006;2022-12-24T09:57:33;100130.72;;;17.15;68.91
5522;BME280;2783;48.730;8.006;2022-12-24T09:59:59;100137.97;;;16.51;71.14
5522;BME280;2783;48.730;8.006;2022-12-24T10:02:25;100146.19;;;15.81;74.23
5522;BME280;2783;48.730;8.006;2022-12-24T10:04:50;100149.16;;;15.41;77.30
5522;BME280;2783;48.730;8.006;2022-12-24T10:22:51;100156.66;;;14.41;85.09
5522;BME280;2783;48.730;8.006;2022-12-24T10:25:33;100164.75;;;14.40;84.68
5522;BME280;2783;48.730;8.006;2022-12-24T10:28:01;100163.03;;;14.39;84.59
5522;BME280;2783;48.730;8.006;2022-12-24T10:30:30;100164.50;;;14.46;85.49
5522;BME280;2783;48.730;8.006;2022-12-24T10:32:55;100173.28;;;14.48;85.63
5522;BME280;2783;48.730;8.006;2022-12-24T10:35:22;100175.78;;;14.52;85.43
5522;BME280;2783;48.730;8.006;2022-12-24T10:37:48;100175.78;;;14.52;85.39
5522;BME280;2783;48.730;8.006;2022-12-24T10:42:58;100164.69;;;14.60;85.26
5522;BME280;2783;48.730;8.006;2022-12-24T10:45:24;100172.47;;;14.66;86.16
5522;BME280;2783;48.730;8.006;2022-12-24T10:47:54;100173.53;;;14.62;85.88
5522;BME280;2783;48.730;8.006;2022-12-24T10:50:23;100173.84;;;14.56;85.08
5522;BME280;2783;48.730;8.006;2022-12-24T10:52:52;100174.75;;;14.55;86.00
5522;BME280;2783;48.730;8.006;2022-12-24T10:55:20;100180.84;;;14.59;85.99
5522;BME280;2783;48.730;8.006;2022-12-24T10:57:55;100173.44;;;14.45;86.32
5522;BME280;2783;48.730;8.006;2022-12-24T11:00:22;100178.00;;;14.43;86.08
5522;BME280;2783;48.730;8.006;2022-12-24T11:02:49;100184.94;;;14.47;87.89
5522;BME280;2783;48.730;8.006;2022-12-24T11:05:30;100175.06;;;14.49;88.76
5522;BME280;2783;48.730;8.006;2022-12-24T11:07:59;100185.09;;;14.44;90.52
5522;BME280;2783;48.730;8.006;2022-12-24T11:10:25;100185.91;;;14.46;89.43
5522;BME280;2783;48.730;8.006;2022-12-24T11:12:50;100174.38;;;14.44;89.05
5522;BME280;2783;48.730;8.006;2022-12-24T11:15:21;100186.09;;;14.41;89.25
5522;BME280;2783;48.730;8.006;2022-12-24T11:20:19;100177.34;;;14.57;90.42
5522;BME280;2783;48.730;8.006;2022-12-24T11:22:47;100188.56;;;14.65;90.46
5522;BME280;2783;48.730;8.006;2022-12-24T11:25:20;100181.75;;;14.78;90.52
5522;BME280;2783;48.730;8.006;2022-12-24T11:27:47;100187.16;;;14.95;89.38
5522;BME280;2783;48.730;8.006;2022-12-24T11:32:41;100183.88;;;15.25;89.08
5522;BME280;2783;48.730;8.006;2022-12-24T11:35:07;100192.78;;;15.44;89.89
5522;BME280;2783;48.730;8.006;2022-12-24T11:37:32;100181.13;;;15.62;88.60
5522;BME280;2783;48.730;8.006;2022-12-24T11:40:01;100184.75;;;15.78;87.75
5522;BME280;2783;48.730;8.006;2022-12-24T11:42:33;100180.38;;;15.95;86.78
5522;BME280;2783;48.730;8.006;2022-12-24T11:45:03;100177.81;;;15.92;86.09
5522;BME280;2783;48.730;8.006;2022-12-24T11:47:35;100171.66;;;16.07;86.61
5522;BME280;2783;48.730;8.006;2022-12-24T11:52:46;100165.59;;;16.53;84.62
5522;BME280;2783;48.730;8.006;2022-12-24T11:55:15;100149.97;;;16.92;83.69
5522;BME280;2783;48.730;8.006;2022-12-24T11:57:43;100148.63;;;17.61;79.30
5522;BME280;2783;48.730;8.006;2022-12-24T12:00:11;100147.81;;;18.18;73.67
5522;BME280;2783;48.730;8.006;2022-12-24T12:02:37;100143.59;;;18.99;70.14
5522;BME280;2783;48.730;8.006;2022-12-24T12:05:12;100153.91;;;19.59;66.98
5522;BME280;2783;48.730;8.006;2022-12-24T12:07:40;100141.75;;;18.99;62.99
5522;BME280;2783;48.730;8.006;2022-12-24T12:10:07;100146.00;;;18.33;63.50
5522;BME280;2783;48.730;8.006;2022-12-24T12:12:37;100137.75;;;17.63;67.29
5522;BME280;2783;48.730;8.006;2022-12-24T12:17:40;100141.13;;;17.21;70.90
5522;BME280;2783;48.730;8.006;2022-12-24T12:25:27;100141.91;;;16.92;73.89
5522;BME280;2783;48.730;8.006;2022-12-24T12:27:56;100144.06;;;16.85;74.19
5522;BME280;2783;48.730;8.006;2022-12-24T12:30:22;100130.19;;;16.77;73.11
5522;BME280;2783;48.730;8.006;2022-12-24T12:37:53;100130.41;;;16.25;74.73
5522;BME280;2783;48.730;8.006;2022-12-24T12:40:19;100132.66;;;16.17;75.63
5522;BME280;2783;48.730;8.006;2022-12-24T12:42:51;100134.38;;;16.18;76.13
5522;BME280;2783;48.730;8.006;2022-12-24T12:48:06;100131.66;;;16.35;76.62
5522;BME280;2783;48.730;8.006;2022-12-24T12:50:39;100133.91;;;16.27;76.56
5522;BME280;2783;48.730;8.006;2022-12-24T12:58:04;100128.81;;;16.05;77.01
5522;BME280;2783;48.730;8.006;2022-12-24T13:00:35;100141.06;;;15.94;76.94
5522;BME280;2783;48.730;8.006;2022-12-24T13:21:02;100142.00;;;15.41;82.35
5522;BME280;2783;48.730;8.006;2022-12-24T13:23:28;100137.75;;;15.36;83.24
5522;BME280;2783;48.730;8.006;2022-12-24T13:25:55;100138.25;;;15.27;83.41
5522;BME280;2783;48.730;8.006;2022-12-24T13:30:46;100138.59;;;15.19;84.94
5522;BME280;2783;48.730;8.006;2022-12-24T13:33:12;100132.84;;;15.10;85.16
5522;BME280;2783;48.730;8.006;2022-12-24T13:36:00;100131.03;;;15.10;86.50
5522;BME280;2783;48.730;8.006;2022-12-24T13:40:52;100116.69;;;15.11;87.36
5522;BME280;2783;48.730;8.006;2022-12-24T13:43:17;100122.84;;;15.13;87.87
5522;BME280;2783;48.730;8.006;2022-12-24T13:45:44;100112.91;;;15.15;88.20
5522;BME280;2783;48.730;8.006;2022-12-24T13:53:00;100111.16;;;15.14;88.84
5522;BME280;2783;48.730;8.006;2022-12-24T13:55:25;100113.56;;;15.20;88.88
5522;BME280;2783;48.730;8.006;2022-12-24T14:02:49;100127.25;;;15.14;89.21
5522;BME280;2783;48.730;8.006;2022-12-24T14:05:16;100129.06;;;15.14;90.03
5522;BME280;2783;48.730;8.006;2022-12-24T14:07:45;100134.47;;;15.12;89.61
5522;BME280;2783;48.730;8.006;2022-12-24T14:10:57;100126.59;;;15.09;89.85
5522;BME280;2783;48.730;8.006;2022-12-24T14:12:57;100128.34;;;15.10;89.98
5522;BME280;2783;48.730;8.006;2022-12-24T14:18:06;100123.91;;;14.92;91.37
5522;BME280;2783;48.730;8.006;2022-12-24T14:20:31;100131.34;;;14.86;91.53
5522;BME280;2783;48.730;8.006;2022-12-24T14:22:57;100123.53;;;14.81;92.96
5522;BME280;2783;48.730;8.006;2022-12-24T14:25:22;100120.16;;;14.78;92.48
5522;BME280;2783;48.730;8.006;2022-12-24T14:30:17;100114.78;;;14.59;94.03
5522;BME280;2783;48.730;8.006;2022-12-24T14:32:43;100116.44;;;14.62;94.48
5522;BME280;2783;48.730;8.006;2022-12-24T14:37:37;100108.34;;;14.63;93.72
5522;BME280;2783;48.730;8.006;2022-12-24T14:40:02;100117.25;;;14.64;94.12
5522;BME280;2783;48.730;8.006;2022-12-24T14:47:58;100140.91;;;14.54;93.97
5522;BME280;2783;48.730;8.006;2022-12-24T14:52:55;100142.94;;;14.49;94.19
5522;BME280;2783;48.730;8.006;2022-12-24T14:55:28;100141.41;;;14.43;94.57
5522;BME280;2783;48.730;8.006;2022-12-24T15:01:01;100138.06;;;14.38;95.14
5522;BME280;2783;48.730;8.006;2022-12-24T15:03:28;100151.72;;;14.32;94.84
5522;BME280;2783;48.730;8.006;2022-12-24T15:06:03;100150.19;;;14.27;95.14
5522;BME280;2783;48.730;8.006;2022-12-24T15:08:42;100152.16;;;14.22;95.70
5522;BME280;2783;48.730;8.006;2022-12-24T15:11:13;100155.00;;;14.19;95.67
5522;BME280;2783;48.730;8.006;2022-12-24T15:13:40;100157.00;;;14.14;95.85
5522;BME280;2783;48.730;8.006;2022-12-24T15:16:08;100159.81;;;14.11;96.29